sensor_id;sensor_type;location;lat;lon;timestamp;pressure;altitude;pressure_sealevel;temperature;humidity
20111;BME280;10216;42.658;23.248;2023-07-13T00:00:17;94016.22;;;21.69;64.75
20111;BME280;10216;42.658;23.248;2023-07-13T00:02:43;94014.72;;;21.62;64.50
20111;BME280;10216;42.658;23.248;2023-07-13T00:05:09;94029.25;;;21.58;65.38
20111;BME280;10216;42.658;23.248;2023-07-13T00:07:35;94018.13;;;21.51;64.86
20111;BME280;10216;42.658;23.248;2023-07-13T00:10:02;94013.91;;;21.50;64.96
20111;BME280;10216;42.658;23.248;2023-07-13T00:12:32;94020.94;;;21.49;65.52
20111;BME280;10216;42.658;23.248;2023-07-13T00:14:59;94012.19;;;21.43;65.20
20111;BME280;10216;42.658;23.248;2023-07-13T00:17:26;94012.88;;;21.39;65.65
20111;BME280;10216;42.658;23.248;2023-07-13T00:19:52;94008.16;;;21.29;66.13
20111;BME280;10216;42.658;23.248;2023-07-13T00:22:18;94009.97;;;21.29;66.09
20111;BME280;10216;42.658;23.248;2023-07-13T00:24:44;94005.69;;;21.34;66.69
20111;BME280;10216;42.658;23.248;2023-07-13T00:27:10;94009.19;;;21.28;66.27
20111;BME280;10216;42.658;23.248;2023-07-13T00:29:36;93996.66;;;21.19;66.48
20111;BME280;10216;42.658;23.248;2023-07-13T00:32:04;93996.88;;;21.17;66.94
20111;BME280;10216;42.658;23.248;2023-07-13T00:34:30;94001.13;;;21.12;67.11
20111;BME280;10216;42.658;23.248;2023-07-13T00:36:55;93996.28;;;20.97;67.04
20111;BME280;10216;42.658;23.248;2023-07-13T00:39:21;93999.41;;;21.05;66.88
20111;BME280;10216;42.658;23.248;2023-07-13T00:41:48;93991.34;;;21.07;67.24
20111;BME280;10216;42.658;23.248;2023-07-13T00:44:14;93992.81;;;21.03;67.17
20111;BME280;10216;42.658;23.248;2023-07-13T00:46:40;94003.91;;;20.98;66.58
20111;BME280;10216;42.658;23.248;2023-07-13T00:49:08;93999.38;;;20.94;67.11
20111;BME280;10216;42.658;23.248;2023-07-13T00:51:56;94000.59;;;20.91;67.58
20111;BME280;10216;42.658;23.248;2023-07-13T00:54:34;93997.25;;;20.84;67.76
20111;BME280;10216;42.658;23.248;2023-07-13T00:57:05;94000.88;;;20.83;68.02
20111;BME280;10216;42.658;23.248;2023-07-13T00:59:34;93999.38;;;20.76;67.78
20111;BME280;10216;42.658;23.248;2023-07-13T01:02:02;93999.59;;;20.74;67.24
20111;BME280;10216;42.658;23.248;2023-07-13T01:04:28;93993.34;;;20.75;67.73
20111;BME280;10216;42.658;23.248;2023-07-13T01:06:54;93994.31;;;20.81;67.55
20111;BME280;10216;42.658;23.248;2023-07-13T01:09:20;93992.13;;;20.78;67.85
20111;BME280;10216;42.658;23.248;2023-07-13T01:11:46;93992.59;;;20.75;67.84
20111;BME280;10216;42.658;23.248;2023-07-13T01:14:12;93991.31;;;20.77;68.35
20111;BME280;10216;42.658;23.248;2023-07-13T01:16:39;93995.75;;;20.77;67.78
20111;BME280;10216;42.658;23.248;2023-07-13T01:19:24;94001.03;;;20.70;69.00
20111;BME280;10216;42.658;23.248;2023-07-13T01:21:52;93993.44;;;20.69;69.07
20111;BME280;10216;42.658;23.248;2023-07-13T01:24:18;93990.97;;;20.55;68.91
20111;BME280;10216;42.658;23.248;2023-07-13T01:26:43;93988.66;;;20.47;68.92
20111;BME280;10216;42.658;23.248;2023-07-13T01:29:09;93978.38;;;20.34;69.77
20111;BME280;10216;42.658;23.248;2023-07-13T01:31:34;93978.50;;;20.39;70.62
20111;BME280;10216;42.658;23.248;2023-07-13T01:34:00;93981.97;;;20.33;69.84
20111;BME280;10216;42.658;23.248;2023-07-13T01:36:25;93979.47;;;20.20;69.70
20111;BME280;10216;42.658;23.248;2023-07-13T01:38:51;93981.56;;;20.36;69.48
20111;BME280;10216;42.658;23.248;2023-07-13T01:41:16;93973.28;;;20.39;69.41
20111;BME280;10216;42.658;23.248;2023-07-13T01:43:42;93972.06;;;20.42;68.66
20111;BME280;10216;42.658;23.248;2023-07-13T01:46:07;93971.28;;;20.41;69.69
20111;BME280;10216;42.658;23.248;2023-07-13T01:48:33;93967.22;;;20.45;68.93
20111;BME280;10216;42.658;23.248;2023-07-13T01:50:58;93969.16;;;20.50;69.02
20111;BME280;10216;42.658;23.248;2023-07-13T01:53:23;93976.19;;;20.49;70.07
20111;BME280;10216;42.658;23.248;2023-07-13T01:55:49;93980.69;;;20.42;69.16
20111;BME280;10216;42.658;23.248;2023-07-13T01:58:14;93973.25;;;20.46;69.54
20111;BME280;10216;42.658;23.248;2023-07-13T02:00:39;93977.88;;;20.44;70.70
20111;BME280;10216;42.658;23.248;2023-07-13T02:03:05;93985.31;;;20.40;70.34
20111;BME280;10216;42.658;23.248;2023-07-13T02:05:30;93991.34;;;20.41;69.42
20111;BME280;10216;42.658;23.248;2023-07-13T02:07:56;93991.00;;;20.37;70.81
20111;BME280;10216;42.658;23.248;2023-07-13T02:10:21;93990.59;;;20.34;70.57
20111;BME280;10216;42.658;23.248;2023-07-13T02:12:48;93984.31;;;20.41;71.83
20111;BME280;10216;42.658;23.248;2023-07-13T02:15:14;93991.22;;;20.29;71.70
20111;BME280;10216;42.658;23.248;2023-07-13T02:17:40;93991.88;;;20.24;71.63
20111;BME280;10216;42.658;23.248;2023-07-13T02:20:06;93990.41;;;20.10;72.08
20111;BME280;10216;42.658;23.248;2023-07-13T02:22:32;93995.00;;;20.15;72.05
20111;BME280;10216;42.658;23.248;2023-07-13T02:24:57;93990.78;;;20.14;71.88
20111;BME280;10216;42.658;23.248;2023-07-13T02:27:23;93996.41;;;20.11;73.03
20111;BME280;10216;42.658;23.248;2023-07-13T02:29:48;93995.91;;;20.02;73.51
20111;BME280;10216;42.658;23.248;2023-07-13T02:32:16;94004.94;;;20.00;73.33
20111;BME280;10216;42.658;23.248;2023-07-13T02:34:42;93998.56;;;19.96;73.57
20111;BME280;10216;42.658;23.248;2023-07-13T02:37:07;93999.78;;;19.93;73.89
20111;BME280;10216;42.658;23.248;2023-07-13T02:39:33;93989.78;;;19.90;74.05
20111;BME280;10216;42.658;23.248;2023-07-13T02:41:59;93986.97;;;19.92;74.41
20111;BME280;10216;42.658;23.248;2023-07-13T02:44:25;93994.19;;;19.89;74.73
20111;BME280;10216;42.658;23.248;2023-07-13T02:46:51;93991.44;;;19.84;74.75
20111;BME280;10216;42.658;23.248;2023-07-13T02:49:16;93998.66;;;19.82;75.29
20111;BME280;10216;42.658;23.248;2023-07-13T02:51:41;93998.53;;;19.77;74.76
20111;BME280;10216;42.658;23.248;2023-07-13T02:54:07;93993.50;;;19.76;74.83
20111;BME280;10216;42.658;23.248;2023-07-13T02:56:33;93995.53;;;19.74;74.88
20111;BME280;10216;42.658;23.248;2023-07-13T02:58:59;93991.56;;;19.71;75.40
20111;BME280;10216;42.658;23.248;2023-07-13T03:01:24;93999.38;;;19.71;75.94
20111;BME280;10216;42.658;23.248;2023-07-13T03:03:52;94002.56;;;19.73;76.17
20111;BME280;10216;42.658;23.248;2023-07-13T03:06:18;93994.75;;;19.42;77.05
20111;BME280;10216;42.658;23.248;2023-07-13T03:08:43;93999.25;;;19.60;76.38
20111;BME280;10216;42.658;23.248;2023-07-13T03:11:17;93999.22;;;19.66;76.70
20111;BME280;10216;42.658;23.248;2023-07-13T03:13:43;94005.00;;;19.68;76.36
20111;BME280;10216;42.658;23.248;2023-07-13T03:16:09;94008.78;;;19.72;76.25
20111;BME280;10216;42.658;23.248;2023-07-13T03:18:36;94010.53;;;19.78;76.87
20111;BME280;10216;42.658;23.248;2023-07-13T03:21:02;94004.13;;;19.74;76.11
20111;BME280;10216;42.658;23.248;2023-07-13T03:23:27;94012.75;;;19.75;76.69
20111;BME280;10216;42.658;23.248;2023-07-13T03:26:08;94010.34;;;19.80;77.54
20111;BME280;10216;42.658;23.248;2023-07-13T03:28:34;94009.03;;;19.89;77.82
20111;BME280;10216;42.658;23.248;2023-07-13T03:31:04;94010.69;;;19.83;77.33
20111;BME280;10216;42.658;23.248;2023-07-13T03:33:30;94004.69;;;19.83;79.06
20111;BME280;10216;42.658;23.248;2023-07-13T03:35:56;94014.25;;;19.89;78.54
20111;BME280;10216;42.658;23.248;2023-07-13T03:38:22;94014.25;;;19.89;79.09
20111;BME280;10216;42.658;23.248;2023-07-13T03:40:47;94019.19;;;19.97;78.68
20111;BME280;10216;42.658;23.248;2023-07-13T03:43:12;94014.56;;;19.99;78.78
20111;BME280;10216;42.658;23.248;2023-07-13T03:45:38;94013.72;;;20.05;79.83
20111;BME280;10216;42.658;23.248;2023-07-13T03:48:04;94016.72;;;20.09;79.92
20111;BME280;10216;42.658;23.248;2023-07-13T03:50:30;94013.50;;;20.07;79.02
20111;BME280;10216;42.658;23.248;2023-07-13T03:52:57;94011.03;;;20.12;80.62
20111;BME280;10216;42.658;23.248;2023-07-13T03:55:22;94022.47;;;20.11;81.01
20111;BME280;10216;42.658;23.248;2023-07-13T03:57:54;94006.75;;;20.24;80.78
20111;BME280;10216;42.658;23.248;2023-07-13T04:00:22;94012.44;;;20.33;81.01
20111;BME280;10216;42.658;23.248;2023-07-13T04:02:48;94015.06;;;20.33;80.54
20111;BME280;10216;42.658;23.248;2023-07-13T04:05:14;94014.25;;;20.32;81.17
20111;BME280;10216;42.658;23.248;2023-07-13T04:07:40;94014.97;;;20.46;80.43
20111;BME280;10216;42.658;23.248;2023-07-13T04:10:06;94011.25;;;20.53;80.65
20111;BME280;10216;42.658;23.248;2023-07-13T04:12:31;94016.19;;;20.61;80.22
20111;BME280;10216;42.658;23.248;2023-07-13T04:14:56;94017.94;;;20.67;79.54
20111;BME280;10216;42.658;23.248;2023-07-13T04:17:22;94011.13;;;20.67;79.53
20111;BME280;10216;42.658;23.248;2023-07-13T04:19:47;94015.69;;;20.71;79.60
20111;BME280;10216;42.658;23.248;2023-07-13T04:22:14;94000.31;;;20.63;79.43
20111;BME280;10216;42.658;23.248;2023-07-13T04:24:39;94018.31;;;20.71;79.47
20111;BME280;10216;42.658;23.248;2023-07-13T04:27:05;94026.25;;;20.76;79.58
20111;BME280;10216;42.658;23.248;2023-07-13T04:29:30;94030.47;;;20.77;78.68
20111;BME280;10216;42.658;23.248;2023-07-13T04:31:56;94028.38;;;20.86;77.51
20111;BME280;10216;42.658;23.248;2023-07-13T04:34:21;94035.19;;;20.87;77.87
20111;BME280;10216;42.658;23.248;2023-07-13T04:36:46;94018.44;;;20.94;78.32
20111;BME280;10216;42.658;23.248;2023-07-13T04:39:12;94027.78;;;21.02;78.35
20111;BME280;10216;42.658;23.248;2023-07-13T04:41:37;94035.75;;;21.07;79.08
20111;BME280;10216;42.658;23.248;2023-07-13T04:44:03;94033.25;;;21.12;79.74
20111;BME280;10216;42.658;23.248;2023-07-13T04:46:28;94040.03;;;21.20;80.58
20111;BME280;10216;42.658;23.248;2023-07-13T04:48:53;94042.41;;;21.21;79.49
20111;BME280;10216;42.658;23.248;2023-07-13T04:51:19;94046.19;;;21.25;78.77
20111;BME280;10216;42.658;23.248;2023-07-13T04:53:45;94053.38;;;21.30;78.13
20111;BME280;10216;42.658;23.248;2023-07-13T04:56:10;94051.69;;;21.35;77.50
20111;BME280;10216;42.658;23.248;2023-07-13T04:58:35;94053.97;;;21.43;76.29
20111;BME280;10216;42.658;23.248;2023-07-13T05:01:05;94056.72;;;21.49;75.24
20111;BME280;10216;42.658;23.248;2023-07-13T05:03:31;94051.88;;;21.52;75.08
20111;BME280;10216;42.658;23.248;2023-07-13T05:06:05;94047.97;;;21.43;74.66
20111;BME280;10216;42.658;23.248;2023-07-13T05:08:31;94046.47;;;21.47;75.79
20111;BME280;10216;42.658;23.248;2023-07-13T05:10:59;94058.59;;;21.60;75.74
20111;BME280;10216;42.658;23.248;2023-07-13T05:13:24;94056.22;;;21.70;75.43
20111;BME280;10216;42.658;23.248;2023-07-13T05:16:04;94055.09;;;21.77;76.53
20111;BME280;10216;42.658;23.248;2023-07-13T05:18:31;94067.16;;;21.78;76.69
20111;BME280;10216;42.658;23.248;2023-07-13T05:21:02;94062.28;;;21.82;76.03
20111;BME280;10216;42.658;23.248;2023-07-13T05:23:29;94061.44;;;22.00;75.98
20111;BME280;10216;42.658;23.248;2023-07-13T05:25:55;94053.38;;;22.13;76.40
20111;BME280;10216;42.658;23.248;2023-07-13T05:28:21;94065.78;;;22.17;77.57
20111;BME280;10216;42.658;23.248;2023-07-13T05:30:48;94055.31;;;22.17;77.42
20111;BME280;10216;42.658;23.248;2023-07-13T05:33:13;94059.31;;;22.32;76.66
20111;BME280;10216;42.658;23.248;2023-07-13T05:35:39;94069.44;;;22.40;76.23
20111;BME280;10216;42.658;23.248;2023-07-13T05:38:04;94074.78;;;22.45;76.04
20111;BME280;10216;42.658;23.248;2023-07-13T05:40:29;94068.41;;;22.52;74.05
20111;BME280;10216;42.658;23.248;2023-07-13T05:42:55;94081.03;;;22.55;74.63
20111;BME280;10216;42.658;23.248;2023-07-13T05:45:20;94073.19;;;22.55;74.81
20111;BME280;10216;42.658;23.248;2023-07-13T05:47:45;94075.09;;;22.72;74.59
20111;BME280;10216;42.658;23.248;2023-07-13T05:50:11;94070.94;;;22.82;74.96
20111;BME280;10216;42.658;23.248;2023-07-13T05:52:36;94069.53;;;22.91;72.41
20111;BME280;10216;42.658;23.248;2023-07-13T05:55:02;94068.06;;;22.95;72.36
20111;BME280;10216;42.658;23.248;2023-07-13T05:57:28;94069.84;;;23.07;71.63
20111;BME280;10216;42.658;23.248;2023-07-13T05:59:53;94069.47;;;23.15;71.33
20111;BME280;10216;42.658;23.248;2023-07-13T06:02:19;94053.59;;;23.33;70.97
20111;BME280;10216;42.658;23.248;2023-07-13T06:04:44;94055.16;;;23.46;70.38
20111;BME280;10216;42.658;23.248;2023-07-13T06:07:09;94046.22;;;23.58;70.17
20111;BME280;10216;42.658;23.248;2023-07-13T06:09:35;94053.56;;;23.73;71.45
20111;BME280;10216;42.658;23.248;2023-07-13T06:12:00;94057.41;;;23.82;70.33
20111;BME280;10216;42.658;23.248;2023-07-13T06:14:25;94070.28;;;23.84;67.74
20111;BME280;10216;42.658;23.248;2023-07-13T06:16:51;94072.09;;;24.00;67.62
20111;BME280;10216;42.658;23.248;2023-07-13T06:19:16;94072.34;;;24.15;68.23
20111;BME280;10216;42.658;23.248;2023-07-13T06:21:42;94078.22;;;24.34;68.30
20111;BME280;10216;42.658;23.248;2023-07-13T06:24:07;94072.28;;;24.43;65.66
20111;BME280;10216;42.658;23.248;2023-07-13T06:26:33;94073.66;;;24.63;65.54
20111;BME280;10216;42.658;23.248;2023-07-13T06:28:58;94079.81;;;24.73;64.49
20111;BME280;10216;42.658;23.248;2023-07-13T06:31:23;94077.88;;;24.85;62.62
20111;BME280;10216;42.658;23.248;2023-07-13T06:33:49;94080.44;;;24.97;64.71
20111;BME280;10216;42.658;23.248;2023-07-13T06:36:14;94078.00;;;25.12;65.22
20111;BME280;10216;42.658;23.248;2023-07-13T06:38:39;94076.47;;;25.16;65.18
20111;BME280;10216;42.658;23.248;2023-07-13T06:41:06;94077.50;;;25.15;62.18
20111;BME280;10216;42.658;23.248;2023-07-13T06:43:32;94080.44;;;25.41;62.97
20111;BME280;10216;42.658;23.248;2023-07-13T06:45:58;94072.13;;;25.49;62.32
20111;BME280;10216;42.658;23.248;2023-07-13T06:48:23;94063.56;;;25.58;60.79
20111;BME280;10216;42.658;23.248;2023-07-13T06:50:49;94068.78;;;25.80;62.02
20111;BME280;10216;42.658;23.248;2023-07-13T06:53:15;94068.97;;;26.00;61.97
20111;BME280;10216;42.658;23.248;2023-07-13T06:55:43;94068.28;;;26.15;62.15
20111;BME280;10216;42.658;23.248;2023-07-13T06:58:09;94068.22;;;26.37;59.67
20111;BME280;10216;42.658;23.248;2023-07-13T07:00:35;94063.53;;;26.44;58.73
20111;BME280;10216;42.658;23.248;2023-07-13T07:03:00;94074.47;;;26.63;58.16
20111;BME280;10216;42.658;23.248;2023-07-13T07:05:25;94073.25;;;26.80;58.47
20111;BME280;10216;42.658;23.248;2023-07-13T07:07:52;94074.94;;;26.92;57.90
20111;BME280;10216;42.658;23.248;2023-07-13T07:10:18;94072.84;;;26.94;56.53
20111;BME280;10216;42.658;23.248;2023-07-13T07:12:44;94077.84;;;26.90;55.22
20111;BME280;10216;42.658;23.248;2023-07-13T07:15:10;94069.53;;;27.13;56.72
20111;BME280;10216;42.658;23.248;2023-07-13T07:17:35;94072.22;;;27.34;56.20
20111;BME280;10216;42.658;23.248;2023-07-13T07:20:01;94074.72;;;27.55;55.29
20111;BME280;10216;42.658;23.248;2023-07-13T07:22:27;94073.16;;;27.75;54.16
20111;BME280;10216;42.658;23.248;2023-07-13T07:24:53;94072.16;;;27.86;53.89
20111;BME280;10216;42.658;23.248;2023-07-13T07:27:19;94068.72;;;28.06;54.16
20111;BME280;10216;42.658;23.248;2023-07-13T07:29:44;94065.84;;;28.17;54.05
20111;BME280;10216;42.658;23.248;2023-07-13T07:32:09;94064.53;;;28.35;54.09
20111;BME280;10216;42.658;23.248;2023-07-13T07:34:35;94069.81;;;28.55;53.57
20111;BME280;10216;42.658;23.248;2023-07-13T07:37:01;94067.94;;;28.76;53.00
20111;BME280;10216;42.658;23.248;2023-07-13T07:39:27;94061.59;;;28.72;51.23
20111;BME280;10216;42.658;23.248;2023-07-13T07:41:53;94062.91;;;28.69;50.36
20111;BME280;10216;42.658;23.248;2023-07-13T07:44:18;94056.06;;;28.89;50.61
20111;BME280;10216;42.658;23.248;2023-07-13T07:46:44;94049.91;;;29.08;52.49
20111;BME280;10216;42.658;23.248;2023-07-13T07:49:09;94053.00;;;29.31;53.18
20111;BME280;10216;42.658;23.248;2023-07-13T07:51:35;94055.84;;;29.49;49.92
20111;BME280;10216;42.658;23.248;2023-07-13T07:54:01;94052.97;;;29.41;49.44
20111;BME280;10216;42.658;23.248;2023-07-13T07:56:26;94059.81;;;29.47;50.25
20111;BME280;10216;42.658;23.248;2023-07-13T07:58:52;94050.81;;;29.53;48.68
20111;BME280;10216;42.658;23.248;2023-07-13T08:01:17;94043.75;;;29.82;52.71
20111;BME280;10216;42.658;23.248;2023-07-13T08:03:43;94040.63;;;30.14;50.42
20111;BME280;10216;42.658;23.248;2023-07-13T08:06:08;94025.59;;;30.39;48.94
20111;BME280;10216;42.658;23.248;2023-07-13T08:08:34;94027.13;;;30.74;48.20
20111;BME280;10216;42.658;23.248;2023-07-13T08:11:06;94026.84;;;30.99;48.89
20111;BME280;10216;42.658;23.248;2023-07-13T08:13:32;94024.13;;;31.28;49.19
20111;BME280;10216;42.658;23.248;2023-07-13T08:15:58;94026.25;;;31.50;47.91
20111;BME280;10216;42.658;23.248;2023-07-13T08:18:24;94029.81;;;31.83;48.88
20111;BME280;10216;42.658;23.248;2023-07-13T08:20:49;94031.91;;;31.67;45.04
20111;BME280;10216;42.658;23.248;2023-07-13T08:23:14;94028.38;;;31.90;46.64
20111;BME280;10216;42.658;23.248;2023-07-13T08:25:42;94027.56;;;32.27;46.46
20111;BME280;10216;42.658;23.248;2023-07-13T08:28:07;94029.75;;;32.71;45.49
20111;BME280;10216;42.658;23.248;2023-07-13T08:30:33;94021.19;;;32.74;44.70
20111;BME280;10216;42.658;23.248;2023-07-13T08:32:58;94035.00;;;33.17;44.32
20111;BME280;10216;42.658;23.248;2023-07-13T08:35:24;94028.28;;;32.92;41.69
20111;BME280;10216;42.658;23.248;2023-07-13T08:37:51;94022.34;;;33.64;41.98
20111;BME280;10216;42.658;23.248;2023-07-13T08:40:16;94014.72;;;33.85;41.46
20111;BME280;10216;42.658;23.248;2023-07-13T08:42:46;94012.47;;;33.78;40.45
20111;BME280;10216;42.658;23.248;2023-07-13T08:45:41;94020.59;;;34.18;42.02
20111;BME280;10216;42.658;23.248;2023-07-13T08:48:19;94020.47;;;34.98;42.26
20111;BME280;10216;42.658;23.248;2023-07-13T08:50:52;94020.31;;;35.03;40.83
20111;BME280;10216;42.658;23.248;2023-07-13T08:53:21;94019.56;;;35.68;40.45
20111;BME280;10216;42.658;23.248;2023-07-13T08:55:52;94024.47;;;35.18;38.60
20111;BME280;10216;42.658;23.248;2023-07-13T08:58:22;94018.56;;;35.38;36.04
20111;BME280;10216;42.658;23.248;2023-07-13T09:01:10;94029.44;;;35.59;37.77
20111;BME280;10216;42.658;23.248;2023-07-13T09:03:56;94034.72;;;35.98;35.95
20111;BME280;10216;42.658;23.248;2023-07-13T09:06:34;94047.13;;;36.72;35.92
20111;BME280;10216;42.658;23.248;2023-07-13T09:12:01;94055.81;;;37.07;35.91
20111;BME280;10216;42.658;23.248;2023-07-13T09:14:36;94063.44;;;36.88;36.93
20111;BME280;10216;42.658;23.248;2023-07-13T09:17:05;94051.50;;;37.32;36.37
20111;BME280;10216;42.658;23.248;2023-07-13T09:19:32;94059.34;;;38.16;34.96
20111;BME280;10216;42.658;23.248;2023-07-13T09:22:02;94061.91;;;37.54;33.32
20111;BME280;10216;42.658;23.248;2023-07-13T09:26:56;94053.28;;;37.99;34.90
20111;BME280;10216;42.658;23.248;2023-07-13T09:29:29;94059.28;;;38.25;33.96
20111;BME280;10216;42.658;23.248;2023-07-13T09:31:57;94064.63;;;38.04;34.40
20111;BME280;10216;42.658;23.248;2023-07-13T09:34:24;94058.41;;;38.54;33.22
20111;BME280;10216;42.658;23.248;2023-07-13T09:36:49;94058.00;;;38.97;32.33
20111;BME280;10216;42.658;23.248;2023-07-13T09:39:23;94057.00;;;39.74;31.25
20111;BME280;10216;42.658;23.248;2023-07-13T09:47:02;94054.56;;;39.57;27.22
20111;BME280;10216;42.658;23.248;2023-07-13T09:49:36;94051.84;;;39.94;27.26
20111;BME280;10216;42.658;23.248;2023-07-13T09:52:07;94042.25;;;39.44;26.43
20111;BME280;10216;42.658;23.248;2023-07-13T09:54:36;94036.81;;;38.95;27.74
20111;BME280;10216;42.658;23.248;2023-07-13T09:57:11;94029.00;;;39.88;27.56
20111;BME280;10216;42.658;23.248;2023-07-13T09:59:41;94041.69;;;40.55;26.22
20111;BME280;10216;42.658;23.248;2023-07-13T10:02:25;94029.91;;;41.07;26.20
20111;BME280;10216;42.658;23.248;2023-07-13T10:05:04;94020.94;;;39.63;27.92
20111;BME280;10216;42.658;23.248;2023-07-13T10:07:31;94004.97;;;40.94;27.01
20111;BME280;10216;42.658;23.248;2023-07-13T10:09:59;94013.31;;;40.73;26.15
20111;BME280;10216;42.658;23.248;2023-07-13T10:12:26;94006.94;;;41.60;26.22
20111;BME280;10216;42.658;23.248;2023-07-13T10:14:55;94014.25;;;41.44;25.30
20111;BME280;10216;42.658;23.248;2023-07-13T10:17:29;94007.28;;;41.43;25.71
20111;BME280;10216;42.658;23.248;2023-07-13T10:20:01;94017.97;;;42.05;26.22
20111;BME280;10216;42.658;23.248;2023-07-13T10:25:25;94026.28;;;42.97;23.95
20111;BME280;10216;42.658;23.248;2023-07-13T10:27:54;94023.53;;;42.93;24.02
20111;BME280;10216;42.658;23.248;2023-07-13T10:30:32;94021.31;;;43.97;24.50
20111;BME280;10216;42.658;23.248;2023-07-13T10:33:02;94018.59;;;43.97;24.08
20111;BME280;10216;42.658;23.248;2023-07-13T10:35:29;94013.88;;;43.64;24.67
20111;BME280;10216;42.658;23.248;2023-07-13T10:38:01;94014.41;;;44.03;25.11
20111;BME280;10216;42.658;23.248;2023-07-13T10:43:07;93999.50;;;43.86;24.55
20111;BME280;10216;42.658;23.248;2023-07-13T10:45:35;94006.50;;;43.91;24.84
20111;BME280;10216;42.658;23.248;2023-07-13T10:48:03;93995.28;;;44.52;23.74
20111;BME280;10216;42.658;23.248;2023-07-13T10:50:29;94001.28;;;45.09;24.73
20111;BME280;10216;42.658;23.248;2023-07-13T10:58:18;93988.44;;;43.98;24.02
20111;BME280;10216;42.658;23.248;2023-07-13T11:03:33;93983.41;;;45.56;23.50
20111;BME280;10216;42.658;23.248;2023-07-13T11:06:16;93971.69;;;45.44;24.07
20111;BME280;10216;42.658;23.248;2023-07-13T11:11:34;93957.94;;;44.02;24.25
20111;BME280;10216;42.658;23.248;2023-07-13T11:14:02;93963.78;;;44.74;23.68
20111;BME280;10216;42.658;23.248;2023-07-13T11:16:47;93960.25;;;45.79;23.43
20111;BME280;10216;42.658;23.248;2023-07-13T11:24:52;93950.75;;;45.45;24.22
20111;BME280;10216;42.658;23.248;2023-07-13T11:27:38;93950.00;;;46.24;23.23
20111;BME280;10216;42.658;23.248;2023-07-13T11:32:50;93945.84;;;45.68;23.55
20111;BME280;10216;42.658;23.248;2023-07-13T11:35:21;93939.25;;;44.67;24.31
20111;BME280;10216;42.658;23.248;2023-07-13T11:37:49;93941.16;;;46.62;22.98
20111;BME280;10216;42.658;23.248;2023-07-13T11:40:15;93940.84;;;45.77;23.49
20111;BME280;10216;42.658;23.248;2023-07-13T11:42:40;93951.09;;;46.12;23.21
20111;BME280;10216;42.658;23.248;2023-07-13T11:45:19;93943.13;;;47.36;22.43
20111;BME280;10216;42.658;23.248;2023-07-13T11:47:48;93937.22;;;47.77;21.05
20111;BME280;10216;42.658;23.248;2023-07-13T11:50:23;93938.41;;;46.48;22.44
20111;BME280;10216;42.658;23.248;2023-07-13T11:52:50;93934.53;;;46.39;21.81
20111;BME280;10216;42.658;23.248;2023-07-13T11:55:20;93930.78;;;45.81;22.27
20111;BME280;10216;42.658;23.248;2023-07-13T11:57:54;93924.09;;;46.66;22.07
20111;BME280;10216;42.658;23.248;2023-07-13T12:00:25;93917.91;;;47.11;22.38
20111;BME280;10216;42.658;23.248;2023-07-13T12:02:54;93916.66;;;47.55;22.28
20111;BME280;10216;42.658;23.248;2023-07-13T12:05:21;93918.59;;;46.51;22.08
20111;BME280;10216;42.658;23.248;2023-07-13T12:07:47;93914.56;;;45.92;22.88
20111;BME280;10216;42.658;23.248;2023-07-13T12:10:25;93908.41;;;46.13;22.25
20111;BME280;10216;42.658;23.248;2023-07-13T12:13:17;93909.97;;;46.14;24.21
20111;BME280;10216;42.658;23.248;2023-07-13T12:15:45;93913.59;;;45.56;23.08
20111;BME280;10216;42.658;23.248;2023-07-13T12:18:14;93897.63;;;44.86;23.67
20111;BME280;10216;42.658;23.248;2023-07-13T12:20:40;93892.50;;;45.28;23.55
20111;BME280;10216;42.658;23.248;2023-07-13T12:23:14;93887.97;;;44.44;24.96
20111;BME280;10216;42.658;23.248;2023-07-13T12:25:45;93874.41;;;43.44;24.87
20111;BME280;10216;42.658;23.248;2023-07-13T12:31:22;93865.38;;;42.80;25.06
20111;BME280;10216;42.658;23.248;2023-07-13T12:33:47;93864.63;;;42.34;26.90
20111;BME280;10216;42.658;23.248;2023-07-13T12:36:15;93870.06;;;41.95;25.88
20111;BME280;10216;42.658;23.248;2023-07-13T12:38:41;93860.13;;;41.99;27.32
20111;BME280;10216;42.658;23.248;2023-07-13T12:41:08;93859.66;;;41.55;25.96
20111;BME280;10216;42.658;23.248;2023-07-13T12:43:36;93843.69;;;41.12;25.30
20111;BME280;10216;42.658;23.248;2023-07-13T12:46:17;93842.06;;;40.13;27.30
20111;BME280;10216;42.658;23.248;2023-07-13T12:48:43;93838.81;;;39.92;28.05
20111;BME280;10216;42.658;23.248;2023-07-13T12:51:13;93840.84;;;39.67;28.19
20111;BME280;10216;42.658;23.248;2023-07-13T12:53:41;93838.03;;;39.63;28.75
20111;BME280;10216;42.658;23.248;2023-07-13T12:56:15;93832.47;;;39.84;27.84
20111;BME280;10216;42.658;23.248;2023-07-13T12:58:42;93833.97;;;38.77;27.19
20111;BME280;10216;42.658;23.248;2023-07-13T13:01:10;93818.56;;;38.50;28.05
20111;BME280;10216;42.658;23.248;2023-07-13T13:03:45;93820.44;;;38.37;28.37
20111;BME280;10216;42.658;23.248;2023-07-13T13:08:50;93813.41;;;38.45;27.86
20111;BME280;10216;42.658;23.248;2023-07-13T13:11:16;93815.88;;;38.62;28.84
20111;BME280;10216;42.658;23.248;2023-07-13T13:13:42;93806.81;;;38.66;27.84
20111;BME280;10216;42.658;23.248;2023-07-13T13:18:45;93803.81;;;38.68;30.22
20111;BME280;10216;42.658;23.248;2023-07-13T13:21:11;93800.22;;;38.52;31.02
20111;BME280;10216;42.658;23.248;2023-07-13T13:23:37;93804.94;;;37.85;29.15
20111;BME280;10216;42.658;23.248;2023-07-13T13:26:03;93809.41;;;37.94;29.16
20111;BME280;10216;42.658;23.248;2023-07-13T13:28:29;93794.44;;;37.92;30.13
20111;BME280;10216;42.658;23.248;2023-07-13T13:30:54;93800.34;;;37.86;30.00
20111;BME280;10216;42.658;23.248;2023-07-13T13:33:21;93791.03;;;37.59;29.54
20111;BME280;10216;42.658;23.248;2023-07-13T13:35:47;93790.94;;;37.68;28.90